Surface/Precipitation History
02/08/2018 19:40  to  2/9/2018 19:40
Change End Date:
Date/Time
(MDT)
Sf
Temp Chem Water Layer Surface Precipitation
Sfc Pvt Sub Frz Factor Pct Dpth DpthThk IcePct Cond Salin FI Type Intens Accum Rate
02/09/2018 19:40 Ice Warning 26.8F - 33F 32F 5 0% - - 100% 0 mhos 9 - None None - -
02/09/2018 19:31 Ice Warning 26.6F - 33F 32F 5 0% - - 100% 0 mhos 10 - None None - -
02/09/2018 19:29 Ice Warning 26.6F - 33F 32F 5 0% - - 100% 0 mhos 10 - None None - -
02/09/2018 19:19 Ice Warning 26.8F - 33F 32F 5 0% - - 100% 0 mhos 14 - None None - -
02/09/2018 19:16 Ice Warning 26.6F - 33F 32F 5 0% - - 100% 0 mhos 11 - None None - -
02/09/2018 19:09 Ice Warning 26.8F - 33F 32F 5 0% - - 100% 0 mhos 13 - None None - -
02/09/2018 19:01 Ice Warning 26.8F - 33F 32F 5 0% - - 100% 0 mhos 11 - None None - -
02/09/2018 18:59 Ice Warning 26.6F - 33F 32F 5 0% - - 100% 0 mhos 11 - None None - -
02/09/2018 18:49 Ice Warning 26.8F - 33F 32F 5 0% - - 100% 0 mhos 12 - None None - -
02/09/2018 18:46 Ice Warning 26.8F - 33F 32F 5 0% - - 100% 0 mhos 11 - None None - -
02/09/2018 18:39 Ice Warning 27.0F - 33F 32F 5 0% - - 100% 0 mhos 17 - None None - -
02/09/2018 18:31 Ice Warning 27.1F - 33F 32F 5 0% - - 100% 0 mhos 16 - None None - -
02/09/2018 18:29 Ice Warning 26.8F - 33F 32F 5 0% - - 100% 0 mhos 16 - None None - -
02/09/2018 18:19 Ice Warning 26.8F - 33F 32F 5 0% - - 100% 0 mhos 17 - None None - -
02/09/2018 18:16 Ice Warning 27.0F - 33F 32F 5 0% - - 100% 0 mhos 17 - None None - -
Date/Time
(MDT)
Sf
Temp Chem Water Layer Surface Precipitation
Sfc Pvt Sub Frz Factor Pct Dpth DpthThk IcePct Cond Salin FI Type Intens Accum Rate
02/09/2018 18:09 Ice Warning 27.1F - 33F 32F 5 0% - - 100% 0 mhos 19 - None None - -
02/09/2018 18:01 Ice Warning 27.1F - 33F 32F 5 0% - - 100% 0 mhos 22 - None None - -
02/09/2018 17:59 Ice Warning 27.0F - 33F 32F 5 0% - - 100% 0 mhos 22 - None None - -
02/09/2018 17:49 Ice Warning 27.1F - 33F 32F 5 0% - - 100% 0 mhos 22 - None None - -
02/09/2018 17:46 Ice Warning 27.3F - 33F 32F 5 0% - - 100% 0 mhos 22 - None None - -
02/09/2018 17:39 Ice Warning 27.3F - 33F 32F 15 0% - - 99% 0 mhos 25 - None None - -
02/09/2018 17:31 Ice Warning 28.0F - 33F 32F 45 0% - - 99% 0 mhos 26 - None None - -
02/09/2018 17:29 Ice Warning 28.0F - 33F 32F 70 0% - - 99% 0 mhos 28 - None None - -
02/09/2018 17:19 Ice Warning 28.4F - 33F 32F 10 0% - - 99% 0 mhos 19 - None None - -
02/09/2018 17:16 Ice Warning 28.4F - 33F 32F 5 0% - - 99% 0 mhos 19 - None None - -
02/09/2018 17:09 Ice Warning 27.9F - 33F 32F 10 0% - - 100% 0 mhos 18 - None None - -
02/09/2018 17:01 Ice Warning 27.5F - 33F 32F 25 0% - - 99% 0 mhos 24 - None None - -
02/09/2018 16:59 Ice Warning 27.7F - 33F 32F 25 0% - - 99% 0 mhos 25 - None None - -
02/09/2018 16:49 Ice Warning 27.9F - 33F 32F 30 0% - - 99% 0 mhos 31 - None None - -
02/09/2018 16:46 Ice Warning 28.0F - 33F 32F 30 0% - - 99% 0 mhos 32 - None None - -
Date/Time
(MDT)
Sf
Temp Chem Water Layer Surface Precipitation
Sfc Pvt Sub Frz Factor Pct Dpth DpthThk IcePct Cond Salin FI Type Intens Accum Rate
02/09/2018 16:39 Ice Warning 28.0F - 33F 32F 40 0% - - 99% 0 mhos 42 - None None - -
02/09/2018 16:31 Ice Warning 28.2F - 33F 32F 35 0% - - 99% 0 mhos 53 - None None - -
02/09/2018 16:28 Ice Warning 28.8F - 33F 32F 30 0% - - 98% 0 mhos 55 - None None - -
02/09/2018 16:18 Ice Warning 29.3F - 33F 32F 45 0% - - 95% 1 mhos 128 - None None - -
02/09/2018 16:16 Ice Warning 29.5F - 33F 32F 40 1% - - 94% 1 mhos 152 - None None - -
02/09/2018 16:08 Ice Warning 30.2F - 33F 32F 55 1% - - 89% 2 mhos 194 - None None - -
02/09/2018 16:01 Ice Warning 30.7F - 33F 32F 80 1% - - 87% 1 mhos 161 - None None - -
02/09/2018 15:58 Chemically Wet 31.3F - 33F 32F 55 1% - - 80% 1 mhos 150 - None None - -
02/09/2018 15:48 Chemically Wet 31.3F - 33F 32F 40 1% - - 67% 2 mhos 250 - None None - -
02/09/2018 15:46 Wet 32.2F - 33F 32F 45 1% 0.00 in - 0% 3 mhos 271 - None None - -
02/09/2018 15:38 Wet 32.4F - 33F 32F 50 1% 0.00 in - 0% 3 mhos 317 - None None - -
02/09/2018 15:31 Chemically Wet 31.8F - 33F 32F 95 1% 0.00 in - 0% 3 mhos 287 - None None - -
02/09/2018 15:28 Chemically Wet 31.6F - 33F 32F 55 1% 0.00 in - 0% 3 mhos 372 - None None - -
02/09/2018 15:18 Chemically Wet 31.8F - 33F 32F 95 1% 0.00 in - 0% 3 mhos 300 - None None - -
02/09/2018 15:16 Chemically Wet 31.8F - 34F 32F 95 1% 0.00 in - 0% 3 mhos 323 - None None - -
Date/Time
(MDT)
Sf
Temp Chem Water Layer Surface Precipitation
Sfc Pvt Sub Frz Factor Pct Dpth DpthThk IcePct Cond Salin FI Type Intens Accum Rate
02/09/2018 15:08 Wet 32.4F - 34F 31F 95 2% 0.00 in - 0% 4 mhos 429 - None None - -
02/09/2018 15:01 Chemically Wet 31.8F - 33F 31F 95 2% 0.00 in - 0% 5 mhos 571 - None None - -
02/09/2018 14:58 Wet 32.7F - 34F 32F 90 1% 0.00 in - 0% 3 mhos 336 - None None - -
02/09/2018 14:48 Wet 32.9F - 33F 32F 60 1% 0.00 in - 0% 1 mhos 144 - None None - -
02/09/2018 14:46 Wet 32.9F - 34F 32F 95 2% 0.00 in - 0% 4 mhos 397 - None None - -
02/09/2018 14:38 Wet 33.6F - 34F 32F 90 1% 0.00 in - 0% 3 mhos 332 - None None - -
02/09/2018 14:31 Wet 33.4F - 33F 32F 95 1% 0.00 in - 0% 3 mhos 316 - None None - -
02/09/2018 14:28 Wet 33.4F - 34F 32F 50 1% 0.00 in - 0% 3 mhos 284 - None None - -
02/09/2018 14:18 Wet 32.4F - 33F 32F 95 1% 0.00 in - 0% 3 mhos 274 - None None - -
02/09/2018 14:16 Wet 32.5F - 34F 32F 95 1% 0.00 in - 0% 2 mhos 236 - None None - -
02/09/2018 14:08 Wet 32.5F - 34F 32F 75 1% 0.00 in - 0% 3 mhos 284 - None None - -
02/09/2018 14:01 Wet 32.5F - 34F 32F 95 1% 0.00 in - 0% 3 mhos 364 - None None - -
02/09/2018 13:58 Wet 32.5F - 34F 32F 95 2% 0.00 in - 0% 4 mhos 392 - None None - -
02/09/2018 13:48 Chemically Wet 31.6F - 34F 32F 70 1% 0.00 in - 0% 3 mhos 333 - None None - -
02/09/2018 13:46 Wet 32.9F - 34F 32F 90 1% 0.00 in - 0% 3 mhos 307 - None None - -
Date/Time
(MDT)
Sf
Temp Chem Water Layer Surface Precipitation
Sfc Pvt Sub Frz Factor Pct Dpth DpthThk IcePct Cond Salin FI Type Intens Accum Rate
02/09/2018 13:38 Wet 32.5F - 34F 31F 95 2% 0.00 in - 0% 6 mhos 624 - None None - -
02/09/2018 13:31 Wet 32.5F - 34F 32F 95 1% 0.00 in - 0% 3 mhos 275 - None None - -
02/09/2018 13:28 Wet 32.7F - 34F 32F 90 1% 0.00 in - 0% 3 mhos 365 - None None - -
02/09/2018 13:18 Wet 32.7F - 34F 32F 65 1% 0.00 in - 0% 4 mhos 386 - None None - -
02/09/2018 13:16 Wet 32.5F - 34F 32F 95 1% 0.00 in - 0% 3 mhos 356 - None None - -
02/09/2018 13:08 Wet 32.4F - 34F 32F 60 1% 0.00 in - 0% 3 mhos 285 - None None - -
02/09/2018 13:01 Chemically Wet 31.5F - 34F 32F 55 1% - - 51% 3 mhos 292 - None None - -
02/09/2018 12:57 Chemically Wet 30.7F - 34F 32F 80 1% - - 79% 2 mhos 249 - None None - -
02/09/2018 12:47 Chemically Wet 31.5F - 34F 32F 70 1% - - 66% 2 mhos 171 - None None - -
02/09/2018 12:46 Chemically Wet 31.5F - 34F 32F 95 0% - - 71% 1 mhos 127 - None None - -
02/09/2018 12:37 Chemically Wet 31.5F - 34F 31F 95 2% - - 7% 5 mhos 553 - None None - -
02/09/2018 12:31 Chemically Wet 31.5F - 34F 31F 95 2% - - 15% 4 mhos 423 - None None - -
02/09/2018 12:27 Chemically Wet 31.3F - 34F 32F 85 1% - - 51% 3 mhos 368 - None None - -
02/09/2018 12:17 Chemically Wet 30.9F - 34F 32F 95 1% - - 73% 3 mhos 300 - None None - -
02/09/2018 12:16 Chemically Wet 30.9F - 34F 32F 90 1% - - 67% 3 mhos 350 - None None - -
Date/Time
(MDT)
Sf
Temp Chem Water Layer Surface Precipitation
Sfc Pvt Sub Frz Factor Pct Dpth DpthThk IcePct Cond Salin FI Type Intens Accum Rate
02/09/2018 12:07 Chemically Wet 30.2F - 34F 32F 95 1% - - 80% 3 mhos 363 - None None - -
02/09/2018 12:01 Chemically Wet 30.0F - 34F 32F 95 1% - - 85% 3 mhos 304 - None None - -
02/09/2018 11:57 Ice Warning 29.8F - 34F 32F 95 1% - - 86% 3 mhos 301 - None None - -
02/09/2018 11:47 Chemically Wet 30.4F - 34F 32F 95 1% - - 80% 3 mhos 306 - None None - -
02/09/2018 11:46 Chemically Wet 30.2F - 34F 32F 95 1% - - 80% 3 mhos 330 - None None - -
02/09/2018 11:37 Chemically Wet 30.2F - 34F 31F 95 2% - - 74% 4 mhos 444 - None None - -
02/09/2018 11:31 Ice Warning 30.0F - 34F 32F 95 1% - - 90% 2 mhos 190 - None None - -
02/09/2018 11:27 Ice Warning 30.4F - 34F 32F 95 1% - - 92% 1 mhos 130 - None None - -
02/09/2018 11:17 Ice Warning 30.6F - 34F 32F 55 1% - - 90% 1 mhos 139 - None None - -
02/09/2018 11:16 Ice Warning 30.4F - 34F 32F 55 1% - - 91% 1 mhos 140 - None None - -
02/09/2018 11:07 Ice Warning 30.0F - 34F 32F 40 0% - - 95% 1 mhos 106 - None None - -
02/09/2018 11:01 Ice Warning 29.3F - 34F 32F 25 0% - - 97% 1 mhos 71 - None None - -
02/09/2018 10:57 Ice Warning 29.3F - 34F 32F 35 0% - - 97% 1 mhos 87 - None None - -
02/09/2018 10:47 Ice Warning 29.1F - 34F 32F 20 0% - - 99% 0 mhos 42 - None None - -
02/09/2018 10:46 Ice Warning 29.1F - 34F 32F 20 0% - - 99% 0 mhos 40 - None None - -
Date/Time
(MDT)
Sf
Temp Chem Water Layer Surface Precipitation
Sfc Pvt Sub Frz Factor Pct Dpth DpthThk IcePct Cond Salin FI Type Intens Accum Rate
02/09/2018 10:37 Ice Warning 28.9F - 34F 32F 35 0% - - 99% 0 mhos 27 - None None - -
02/09/2018 10:31 Ice Warning 28.6F - 34F 32F 45 0% - - 100% 0 mhos 16 - None None - -
02/09/2018 10:27 Ice Warning 28.8F - 34F 32F 25 0% - - 99% 0 mhos 18 - None None - -
02/09/2018 10:17 Ice Warning 28.0F - 34F 32F 20 0% - - 100% 0 mhos 19 - None None - -
02/09/2018 10:16 Ice Warning 28.0F - 34F 32F 20 0% - - 100% 0 mhos 19 - None None - -
02/09/2018 10:07 Ice Warning 28.0F - 34F 32F 40 0% - - 99% 0 mhos 23 - None None - -
02/09/2018 10:01 Ice Warning 28.0F - 34F 32F 40 0% - - 99% 0 mhos 23 - None None - -
02/09/2018 09:57 Ice Warning 28.0F - 34F 32F 25 0% - - 99% 0 mhos 22 - None None - -
02/09/2018 09:47 Ice Warning 27.9F - 34F 32F 15 0% - - 100% 0 mhos 19 - None None - -
02/09/2018 09:46 Ice Warning 27.9F - 34F 32F 15 0% - - 100% 0 mhos 19 - None None - -
02/09/2018 09:37 Ice Warning 27.5F - 34F 32F 15 0% - - 99% 0 mhos 48 - None None - -
02/09/2018 09:31 Ice Warning 27.7F - 34F 32F 55 1% - - 97% 1 mhos 149 - None None - -
02/09/2018 09:26 Ice Warning 27.7F - 34F 32F 55 1% - - 96% 2 mhos 184 - None None - -
02/09/2018 09:16 Ice Warning 27.0F - 34F 32F 50 1% - - 96% 2 mhos 190 - None None - -
02/09/2018 09:16 Ice Warning 27.0F - 34F 32F 50 1% - - 96% 2 mhos 190 - None None - -
Date/Time
(MDT)
Sf
Temp Chem Water Layer Surface Precipitation
Sfc Pvt Sub Frz Factor Pct Dpth DpthThk IcePct Cond Salin FI Type Intens Accum Rate
02/09/2018 09:06 Ice Warning 27.7F - 34F 32F 70 1% - - 96% 2 mhos 192 - None None - -
02/09/2018 09:01 Ice Warning 27.1F - 34F 32F 70 1% - - 96% 2 mhos 188 - None None - -
02/09/2018 08:56 Ice Warning 26.8F - 34F 32F 50 1% - - 96% 2 mhos 185 - None None - -
02/09/2018 08:46 Ice Warning 26.8F - 34F 32F 65 1% - - 97% 2 mhos 183 - None None - -
02/09/2018 08:46 Ice Warning 26.8F - 34F 32F 65 1% - - 97% 2 mhos 183 - None None - -
02/09/2018 08:36 Ice Warning 26.6F - 34F 32F 65 1% - - 97% 1 mhos 158 - None None - -
02/09/2018 08:31 Ice Warning 26.4F - 34F 32F 70 1% - - 97% 1 mhos 151 - None None - -
02/09/2018 08:26 Ice Warning 26.6F - 34F 32F 90 1% - - 97% 1 mhos 149 - None None - -
02/09/2018 08:16 Ice Warning 26.6F - 34F 32F 80 1% - - 96% 2 mhos 201 - None None - -
02/09/2018 08:16 Ice Warning 26.6F - 34F 32F 80 1% - - 96% 2 mhos 201 - None None - -
02/09/2018 08:06 Ice Warning 27.0F - 34F 32F 95 1% - - 96% 2 mhos 203 - None None - -
02/09/2018 08:01 Ice Warning 26.6F - 34F 32F 95 0% - - 99% 1 mhos 67 - None None - -
02/09/2018 07:56 Ice Warning 26.4F - 34F 32F 85 0% - - 100% 0 mhos 24 - None None - -
02/09/2018 07:46 Ice Warning 26.4F - 34F 32F 95 0% - - 100% 0 mhos 23 - None None - -
02/09/2018 07:46 Ice Warning 26.4F - 34F 32F 95 0% - - 100% 0 mhos 23 - None None - -
Date/Time
(MDT)
Sf
Temp Chem Water Layer Surface Precipitation
Sfc Pvt Sub Frz Factor Pct Dpth DpthThk IcePct Cond Salin FI Type Intens Accum Rate
02/09/2018 07:36 Ice Warning 25.9F - 34F 32F 95 0% - - 100% 0 mhos 11 - None None - -
02/09/2018 07:31 Ice Warning 25.7F - 34F 32F 95 0% - - 100% 0 mhos 9 - None None - -
02/09/2018 07:26 Ice Warning 25.9F - 34F 32F 45 0% - - 100% 0 mhos 5 - None None - -
02/09/2018 07:16 Ice Warning 27.1F - 34F 32F 10 0% - - 100% 0 mhos 4 - None None - -
02/09/2018 07:16 Ice Warning 27.1F - 34F 32F 10 0% - - 100% 0 mhos 4 - None None - -
02/09/2018 07:06 Ice Warning 27.5F - 34F 32F 10 0% - - 100% 0 mhos 4 - None None - -
02/09/2018 07:01 Ice Warning 27.3F - 34F 32F 20 0% - - 100% 0 mhos 4 - None None - -
02/09/2018 06:56 Ice Warning 27.7F - 34F 32F 20 0% - - 100% 0 mhos 4 - None None - -
02/09/2018 06:46 Ice Warning 27.7F - 34F 32F 25 0% - - 100% 0 mhos 5 - None None - -
02/09/2018 06:45 Ice Warning 27.7F - 34F 32F 25 0% - - 100% 0 mhos 5 - None None - -
02/09/2018 06:35 Ice Warning 27.5F - 34F 32F 25 0% - - 100% 0 mhos 5 - None None - -
02/09/2018 06:31 Ice Warning 27.7F - 34F 32F 35 0% - - 100% 0 mhos 5 - None None - -
02/09/2018 06:25 Ice Warning 27.7F - 34F 32F 40 0% - - 100% 0 mhos 5 - None None - -
02/09/2018 06:16 Ice Warning 27.9F - 34F 32F 50 0% - - 100% 0 mhos 5 - None None - -
02/09/2018 06:15 Ice Warning 27.9F - 34F 32F 50 0% - - 100% 0 mhos 5 - None None - -
Date/Time
(MDT)
Sf
Temp Chem Water Layer Surface Precipitation
Sfc Pvt Sub Frz Factor Pct Dpth DpthThk IcePct Cond Salin FI Type Intens Accum Rate
02/09/2018 06:05 Ice Warning 28.0F - 34F 32F 50 0% - - 100% 0 mhos 5 - None None - -
02/09/2018 06:01 Ice Warning 28.0F - 34F 32F 75 0% - - 100% 0 mhos 6 - None None - -
02/09/2018 05:55 Ice Warning 28.4F - 34F 32F 85 0% - - 100% 0 mhos 5 - None None - -
02/09/2018 05:46 Ice Warning 28.4F - 34F 32F 45 0% - - 100% 0 mhos 16 - None None - -
02/09/2018 05:45 Ice Warning 28.4F - 34F 32F 45 0% - - 100% 0 mhos 16 - None None - -
02/09/2018 05:35 Ice Warning 28.2F - 34F 32F 80 1% - - 92% 3 mhos 292 - None None - -
02/09/2018 05:31 Ice Warning 28.2F - 34F 32F 40 0% - - 97% 1 mhos 97 - None None - -
02/09/2018 05:25 Ice Warning 28.2F - 34F 32F 30 0% - - 98% 1 mhos 88 - None None - -
02/09/2018 05:16 Ice Warning 28.0F - 34F 32F 25 0% - - 98% 1 mhos 61 - None None - -
02/09/2018 05:15 Ice Warning 28.0F - 34F 32F 25 0% - - 98% 1 mhos 61 - None None - -
02/09/2018 05:05 Ice Warning 28.0F - 35F 32F 20 0% - - 100% 0 mhos 17 - None None - -
02/09/2018 05:01 Ice Warning 27.7F - 35F 32F 15 0% - - 100% 0 mhos 14 - None None - -
02/09/2018 04:55 Ice Warning 26.8F - 35F 32F 15 0% - - 100% 0 mhos 14 - None None - -
02/09/2018 04:46 Ice Warning 28.0F - 34F 32F 5 0% - - 100% 0 mhos 0 - None None - -
02/09/2018 04:45 Ice Warning 28.0F - 34F 32F 5 0% - - 100% 0 mhos 0 - None None - -
Date/Time
(MDT)
Sf
Temp Chem Water Layer Surface Precipitation
Sfc Pvt Sub Frz Factor Pct Dpth DpthThk IcePct Cond Salin FI Type Intens Accum Rate
02/09/2018 04:35 Ice Warning 28.2F - 35F 32F 5 0% - - 100% 0 mhos 0 - None None - -
02/09/2018 04:31 Ice Warning 28.4F - 34F 32F 5 0% - - 100% 0 mhos 0 - None None - -
02/09/2018 04:25 Ice Warning 28.6F - 34F 32F 5 0% - - 100% 0 mhos 0 - None None - -
02/09/2018 04:16 Ice Warning 28.8F - 34F 32F 5 0% - - 100% 0 mhos 0 - None None - -
02/09/2018 04:15 Ice Warning 28.8F - 34F 32F 5 0% - - 100% 0 mhos 0 - None None - -
02/09/2018 04:05 Ice Warning 29.7F - 34F 32F 5 0% - - 100% 0 mhos 0 - None None - -
02/09/2018 04:01 Ice Warning 30.0F - 35F 32F 5 0% - - 100% 0 mhos 0 - None None - -
02/09/2018 03:55 Ice Warning 30.6F - 34F 32F 5 0% - - 100% 0 mhos 0 - None None - -
02/09/2018 03:46 Ice Warning 30.7F - 34F 32F 5 0% - - 100% 0 mhos 0 - None None - -
02/09/2018 03:45 Ice Warning 30.7F - 34F 32F 5 0% - - 100% 0 mhos 0 - None None - -
02/09/2018 03:35 Ice Warning 31.5F - 35F 32F 5 0% - - 100% 0 mhos 0 - None None - -
02/09/2018 03:31 Ice Warning 31.5F - 35F 32F 5 0% - - 100% 0 mhos 2 - None None - -
02/09/2018 03:25 Ice Warning 31.6F - 35F 32F 5 0% - - 99% 0 mhos 2 - None None - -
02/09/2018 03:16 Ice Warning 31.8F - 34F 32F 5 0% - - 98% 0 mhos 3 - None None - -
02/09/2018 03:15 Ice Warning 31.8F - 35F 32F 5 0% - - 98% 0 mhos 4 - None None - -
Date/Time
(MDT)
Sf
Temp Chem Water Layer Surface Precipitation
Sfc Pvt Sub Frz Factor Pct Dpth DpthThk IcePct Cond Salin FI Type Intens Accum Rate
02/09/2018 03:04 Ice Warning 31.6F - 35F 32F 5 0% - - 98% 0 mhos 5 - None None - -
02/09/2018 03:01 Ice Warning 31.6F - 35F 32F 5 0% - - 99% 0 mhos 4 - None None - -
02/09/2018 02:54 Ice Warning 31.6F - 35F 32F 5 0% - - 98% 0 mhos 6 - None None - -
02/09/2018 02:46 Ice Warning 31.6F - 35F 32F 5 0% - - 99% 0 mhos 3 - None None - -
02/09/2018 02:44 Ice Warning 31.6F - 35F 32F 5 0% - - 99% 0 mhos 3 - None None - -
02/09/2018 02:34 Ice Warning 31.6F - 35F 32F 5 0% - - 99% 0 mhos 1 - None None - -
02/09/2018 02:31 Ice Warning 31.6F - 35F 32F 5 0% - - 100% 0 mhos 1 - None None - -
02/09/2018 02:24 Ice Warning 31.6F - 35F 32F 15 0% - - 100% 0 mhos 1 - None None - -
02/09/2018 02:16 Ice Warning 31.6F - 35F 32F 5 0% - - 100% 0 mhos 1 - None None - -
02/09/2018 02:14 Ice Warning 31.6F - 35F 32F 5 0% - - 100% 0 mhos 1 - None None - -
02/09/2018 02:04 Ice Warning 31.8F - 35F 32F 5 0% - - 100% 0 mhos 0 - None None - -
02/09/2018 02:01 Ice Warning 31.8F - 34F 32F 5 0% - - 100% 0 mhos 0 - None None - -
02/09/2018 01:54 Chemically Wet 32.0F - 35F 32F 5 0% 0.00 in - 0% 0 mhos 1 - None None - -
02/09/2018 01:46 Wet 32.5F - 35F 32F 5 0% 0.00 in - 0% 0 mhos 3 - None None - -
02/09/2018 01:44 Wet 33.6F - 35F 32F 5 0% 0.00 in - 0% 0 mhos 3 - None None - -
Date/Time
(MDT)
Sf
Temp Chem Water Layer Surface Precipitation
Sfc Pvt Sub Frz Factor Pct Dpth DpthThk IcePct Cond Salin FI Type Intens Accum Rate
02/09/2018 01:34 Wet 34.2F - 35F 32F 5 0% 0.00 in - 0% 0 mhos 3 - None None - -
02/09/2018 01:31 Wet 34.3F - 35F 32F 5 0% 0.00 in - 0% 0 mhos 3 - None None - -
02/09/2018 01:24 Wet 34.5F - 35F 32F 5 0% 0.00 in - 0% 0 mhos 3 - None None - -
02/09/2018 01:16 Wet 34.5F - 35F 32F 5 0% 0.00 in - 0% 0 mhos 3 - None None - -
02/09/2018 01:14 Wet 34.5F - 35F 32F 5 0% 0.00 in - 0% 0 mhos 3 - None None - -
02/09/2018 01:04 Wet 35.2F - 35F 32F 5 0% 0.00 in - 0% 0 mhos 2 - Yes - - -
02/09/2018 01:01 Wet 35.1F - 35F 32F 5 0% 0.00 in - 0% 0 mhos 2 - Yes - - -
02/09/2018 00:54 Wet 35.8F - 35F 32F 5 0% 0.00 in - 0% 0 mhos 2 - Yes - - -
02/09/2018 00:46 Wet 36.1F - 35F 32F 5 0% 0.00 in - 0% 0 mhos 2 - Yes - - -
02/09/2018 00:44 Wet 36.5F - 35F 32F 5 0% 0.00 in - 0% 0 mhos 2 - Yes - - -
02/09/2018 00:34 Wet 38.1F - 35F 32F 5 0% 0.00 in - 0% 0 mhos 3 - Yes - - -
02/09/2018 00:31 Wet 38.1F - 35F 32F 5 0% 0.00 in - 0% 0 mhos 4 - Yes - - -
02/09/2018 00:24 Wet 38.3F - 35F 32F 5 0% 0.00 in - 0% 0 mhos 4 - Yes - - -
02/09/2018 00:16 Wet 38.1F - 35F 32F 5 0% 0.00 in - 0% 0 mhos 4 - Yes - - -
02/09/2018 00:14 Wet 38.1F - 35F 32F 5 0% 0.00 in - 0% 0 mhos 4 - Yes - - -
Date/Time
(MDT)
Sf
Temp Chem Water Layer Surface Precipitation
Sfc Pvt Sub Frz Factor Pct Dpth DpthThk IcePct Cond Salin FI Type Intens Accum Rate
02/09/2018 00:04 Wet 37.9F - 35F 32F 5 0% 0.00 in - 0% 0 mhos 3 - Yes - - -
02/09/2018 00:01 Wet 37.9F - 35F 32F 5 0% 0.00 in - 0% 0 mhos 3 - Yes - - -
02/08/2018 23:54 Wet 38.1F - 35F 32F 5 0% 0.00 in - 0% 0 mhos 3 - Yes - - -
02/08/2018 23:46 Wet 38.3F - 35F 32F 5 0% 0.00 in - 0% 0 mhos 3 - Yes - - -
02/08/2018 23:43 Wet 38.7F - 35F 32F 5 0% 0.00 in - 0% 0 mhos 3 - Yes - - -
02/08/2018 23:33 Wet 38.7F - 35F 32F 5 0% 0.00 in - 0% 0 mhos 11 - Yes - - -
02/08/2018 23:31 Wet 38.8F - 34F 32F 5 0% 0.00 in - 0% 0 mhos 16 - Yes - - -
02/08/2018 23:23 Wet 39.0F - 35F 32F 5 0% 0.00 in - 0% 0 mhos 17 - Yes - - -
02/08/2018 23:16 Wet 39.6F - 35F 32F 5 0% 0.00 in - 0% 0 mhos 12 - Yes - - -
02/08/2018 23:13 Wet 39.7F - 35F 32F 5 0% 0.00 in - 0% 0 mhos 8 - Yes - - -
02/08/2018 23:03 Dry 39.6F - 35F - - - - - - 0 mhos 1 - Yes - - -
02/08/2018 23:01 Dry 39.9F - 35F - - - - - - 0 mhos 0 - None None - -
02/08/2018 22:53 Dry 39.6F - 35F - - - - - - 0 mhos 0 - Yes - - -
02/08/2018 22:46 Dry 39.6F - 35F - - - - - - 0 mhos 1 - Yes - - -
02/08/2018 22:43 Dry 39.4F - 35F - - - - - - 0 mhos 1 - Yes - - -
Date/Time
(MDT)
Sf
Temp Chem Water Layer Surface Precipitation
Sfc Pvt Sub Frz Factor Pct Dpth DpthThk IcePct Cond Salin FI Type Intens Accum Rate
02/08/2018 22:33 Wet 39.6F - 35F 32F 5 0% 0.00 in - 0% 0 mhos 1 - Yes - - -
02/08/2018 22:31 Wet 39.7F - 35F 32F 5 0% 0.00 in - 0% 0 mhos 1 - Yes - - -
02/08/2018 22:23 Wet 39.9F - 35F 32F 5 0% 0.00 in - 0% 0 mhos 1 - Yes - - -
02/08/2018 22:16 Dry 40.5F - 35F - - - - - - 0 mhos 0 - Yes - - -
02/08/2018 22:13 Dry 40.5F - 35F - - - - - - 0 mhos 0 - Yes - - -
02/08/2018 22:03 Dry 41.2F - 35F - - - - - - 0 mhos 0 - None None - -
02/08/2018 22:01 Dry 41.2F - 35F - - - - - - 0 mhos 0 - Yes - - -
02/08/2018 21:53 Dry 40.8F - 35F - - - - - - 0 mhos 0 - None None - -
02/08/2018 21:46 Dry 41.2F - 35F - - - - - - 0 mhos 0 - None None - -
02/08/2018 21:43 Dry 41.2F - 34F - - - - - - 0 mhos 0 - None None - -
02/08/2018 21:33 Dry 41.0F - 34F - - - - - - 0 mhos 0 - None None - -
02/08/2018 21:31 Dry 41.0F - 34F - - - - - - 0 mhos 0 - None None - -
02/08/2018 21:23 Dry 41.5F - 34F - - - - - - 0 mhos 0 - None None - -
02/08/2018 21:16 Dry 41.9F - 34F - - - - - - 0 mhos 0 - None None - -
02/08/2018 21:13 Dry 41.5F - 34F - - - - - - 0 mhos 0 - None None - -
Date/Time
(MDT)
Sf
Temp Chem Water Layer Surface Precipitation
Sfc Pvt Sub Frz Factor Pct Dpth DpthThk IcePct Cond Salin FI Type Intens Accum Rate
02/08/2018 21:03 Dry 42.3F - 34F - - - - - - 0 mhos 0 - None None - -
02/08/2018 21:01 Dry 42.1F - 34F - - - - - - 0 mhos 0 - None None - -
02/08/2018 20:53 Dry 42.1F - 35F - - - - - - 0 mhos 0 - None None - -
02/08/2018 20:46 Dry 42.1F - 34F - - - - - - 0 mhos 0 - None None - -
02/08/2018 20:43 Dry 42.1F - 34F - - - - - - 0 mhos 0 - None None - -
02/08/2018 20:33 Dry 42.3F - 34F - - - - - - 0 mhos 0 - None None - -
02/08/2018 20:31 Dry 42.4F - 34F - - - - - - 0 mhos 0 - None None - -
02/08/2018 20:23 Dry 42.6F - 34F - - - - - - 0 mhos 0 - None None - -
02/08/2018 20:16 Dry 42.4F - 34F - - - - - - 0 mhos 0 - None None - -
02/08/2018 20:12 Dry 42.4F - 34F - - - - - - 0 mhos 0 - None None - -
02/08/2018 20:02 Dry 42.6F - 34F - - - - - - 0 mhos 0 - None None - -
02/08/2018 20:01 Dry 42.6F - 34F - - - - - - 0 mhos 0 - None None - -
02/08/2018 19:52 Dry 42.6F - 34F - - - - - - 0 mhos 0 - None None - -
02/08/2018 19:46 Dry 42.6F - 34F - - - - - - 0 mhos 0 - None None - -
02/08/2018 19:42 Dry 43.2F - 34F - - - - - - 0 mhos 0 - None None - -
Change End Date:

Copyright © 1998-2015 Vaisala, Inc.
All Rights Reserved
Send comments about the data to:
SCAN Web ® is a registered trademark of Vaisala, Inc.
SCAN Web Version 6.0